sensor_id;sensor_type;location;lat;lon;timestamp;P1;durP1;ratioP1;P2;durP2;ratioP2
36669;SDS011;22662;47.412;9.742;2022-08-02T00:01:42;4.10;;;3.63;;
36669;SDS011;22662;47.412;9.742;2022-08-02T00:04:09;4.13;;;3.65;;
36669;SDS011;22662;47.412;9.742;2022-08-02T00:06:35;3.55;;;3.25;;
36669;SDS011;22662;47.412;9.742;2022-08-02T00:09:02;3.70;;;3.30;;
36669;SDS011;22662;47.412;9.742;2022-08-02T00:11:29;4.72;;;3.38;;
36669;SDS011;22662;47.412;9.742;2022-08-02T00:13:55;4.30;;;2.95;;
36669;SDS011;22662;47.412;9.742;2022-08-02T00:16:21;4.38;;;3.25;;
36669;SDS011;22662;47.412;9.742;2022-08-02T00:18:47;3.25;;;2.92;;
36669;SDS011;22662;47.412;9.742;2022-08-02T00:21:14;3.72;;;2.97;;
36669;SDS011;22662;47.412;9.742;2022-08-02T00:23:40;3.75;;;2.90;;
36669;SDS011;22662;47.412;9.742;2022-08-02T00:26:06;2.90;;;2.70;;
36669;SDS011;22662;47.412;9.742;2022-08-02T00:28:31;2.97;;;2.67;;
36669;SDS011;22662;47.412;9.742;2022-08-02T00:30:57;2.60;;;2.40;;
36669;SDS011;22662;47.412;9.742;2022-08-02T00:33:24;2.80;;;2.60;;
36669;SDS011;22662;47.412;9.742;2022-08-02T00:35:50;3.03;;;2.70;;
36669;SDS011;22662;47.412;9.742;2022-08-02T00:38:16;3.15;;;2.90;;
36669;SDS011;22662;47.412;9.742;2022-08-02T00:40:51;4.13;;;3.58;;
36669;SDS011;22662;47.412;9.742;2022-08-02T00:43:17;4.88;;;3.97;;
36669;SDS011;22662;47.412;9.742;2022-08-02T00:45:43;4.35;;;3.95;;
36669;SDS011;22662;47.412;9.742;2022-08-02T00:48:09;6.57;;;4.13;;
36669;SDS011;22662;47.412;9.742;2022-08-02T00:50:36;5.65;;;4.57;;
36669;SDS011;22662;47.412;9.742;2022-08-02T00:53:03;5.00;;;4.60;;
36669;SDS011;22662;47.412;9.742;2022-08-02T00:55:30;4.72;;;4.32;;
36669;SDS011;22662;47.412;9.742;2022-08-02T00:57:56;4.63;;;4.20;;
36669;SDS011;22662;47.412;9.742;2022-08-02T01:00:22;4.28;;;3.88;;
36669;SDS011;22662;47.412;9.742;2022-08-02T01:02:49;4.60;;;4.20;;
36669;SDS011;22662;47.412;9.742;2022-08-02T01:05:15;5.82;;;3.97;;
36669;SDS011;22662;47.412;9.742;2022-08-02T01:07:41;5.70;;;3.72;;
36669;SDS011;22662;47.412;9.742;2022-08-02T01:10:07;4.40;;;3.95;;
36669;SDS011;22662;47.412;9.742;2022-08-02T01:12:34;5.82;;;4.30;;
36669;SDS011;22662;47.412;9.742;2022-08-02T01:15:01;4.97;;;3.80;;
36669;SDS011;22662;47.412;9.742;2022-08-02T01:29:16;3.70;;;2.92;;
36669;SDS011;22662;47.412;9.742;2022-08-02T01:39:35;3.42;;;3.13;;
36669;SDS011;22662;47.412;9.742;2022-08-02T01:42:03;3.25;;;2.58;;
36669;SDS011;22662;47.412;9.742;2022-08-02T01:44:32;3.40;;;2.85;;
36669;SDS011;22662;47.412;9.742;2022-08-02T01:47:01;3.50;;;2.88;;
36669;SDS011;22662;47.412;9.742;2022-08-02T01:49:30;2.92;;;2.58;;
36669;SDS011;22662;47.412;9.742;2022-08-02T01:51:59;3.10;;;2.45;;
36669;SDS011;22662;47.412;9.742;2022-08-02T01:54:46;3.35;;;2.53;;
36669;SDS011;22662;47.412;9.742;2022-08-02T01:57:16;2.90;;;2.55;;
36669;SDS011;22662;47.412;9.742;2022-08-02T01:59:45;3.60;;;2.70;;
36669;SDS011;22662;47.412;9.742;2022-08-02T02:02:12;3.50;;;2.40;;
36669;SDS011;22662;47.412;9.742;2022-08-02T02:04:40;2.58;;;2.38;;
36669;SDS011;22662;47.412;9.742;2022-08-02T02:07:07;3.53;;;2.75;;
36669;SDS011;22662;47.412;9.742;2022-08-02T02:09:36;3.53;;;2.40;;
36669;SDS011;22662;47.412;9.742;2022-08-02T02:12:03;2.70;;;2.50;;
36669;SDS011;22662;47.412;9.742;2022-08-02T02:14:30;2.97;;;2.78;;
36669;SDS011;22662;47.412;9.742;2022-08-02T02:16:57;2.70;;;2.35;;
36669;SDS011;22662;47.412;9.742;2022-08-02T02:19:24;2.83;;;2.55;;
36669;SDS011;22662;47.412;9.742;2022-08-02T02:21:52;2.70;;;2.40;;
36669;SDS011;22662;47.412;9.742;2022-08-02T02:24:18;4.50;;;2.50;;
36669;SDS011;22662;47.412;9.742;2022-08-02T02:26:44;3.50;;;2.60;;
36669;SDS011;22662;47.412;9.742;2022-08-02T02:29:11;2.63;;;2.30;;
36669;SDS011;22662;47.412;9.742;2022-08-02T02:31:39;3.25;;;2.33;;
36669;SDS011;22662;47.412;9.742;2022-08-02T02:34:07;2.38;;;1.83;;
36669;SDS011;22662;47.412;9.742;2022-08-02T02:36:40;1.52;;;1.40;;
36669;SDS011;22662;47.412;9.742;2022-08-02T02:39:12;1.77;;;1.45;;
36669;SDS011;22662;47.412;9.742;2022-08-02T02:41:39;1.60;;;1.50;;
36669;SDS011;22662;47.412;9.742;2022-08-02T02:44:08;2.50;;;1.50;;
36669;SDS011;22662;47.412;9.742;2022-08-02T02:46:38;1.85;;;1.38;;
36669;SDS011;22662;47.412;9.742;2022-08-02T02:49:06;1.83;;;1.50;;
36669;SDS011;22662;47.412;9.742;2022-08-02T02:51:35;1.50;;;1.40;;
36669;SDS011;22662;47.412;9.742;2022-08-02T02:54:03;1.55;;;1.45;;
36669;SDS011;22662;47.412;9.742;2022-08-02T02:56:29;2.20;;;1.35;;
36669;SDS011;22662;47.412;9.742;2022-08-02T02:58:56;2.33;;;1.50;;
36669;SDS011;22662;47.412;9.742;2022-08-02T03:01:24;1.70;;;1.60;;
36669;SDS011;22662;47.412;9.742;2022-08-02T03:03:59;2.00;;;1.88;;
36669;SDS011;22662;47.412;9.742;2022-08-02T03:06:26;2.38;;;1.65;;
36669;SDS011;22662;47.412;9.742;2022-08-02T03:08:53;2.15;;;1.83;;
36669;SDS011;22662;47.412;9.742;2022-08-02T03:11:19;1.63;;;1.50;;
36669;SDS011;22662;47.412;9.742;2022-08-02T03:13:47;1.55;;;1.45;;
36669;SDS011;22662;47.412;9.742;2022-08-02T03:16:13;2.45;;;1.98;;
36669;SDS011;22662;47.412;9.742;2022-08-02T03:18:40;2.63;;;1.88;;
36669;SDS011;22662;47.412;9.742;2022-08-02T03:21:11;2.75;;;2.00;;
36669;SDS011;22662;47.412;9.742;2022-08-02T03:23:38;2.97;;;1.90;;
36669;SDS011;22662;47.412;9.742;2022-08-02T03:26:06;2.00;;;1.80;;
36669;SDS011;22662;47.412;9.742;2022-08-02T03:28:32;3.00;;;2.05;;
36669;SDS011;22662;47.412;9.742;2022-08-02T03:30:59;2.08;;;1.95;;
36669;SDS011;22662;47.412;9.742;2022-08-02T03:33:25;2.63;;;2.00;;
36669;SDS011;22662;47.412;9.742;2022-08-02T03:35:53;2.30;;;2.10;;
36669;SDS011;22662;47.412;9.742;2022-08-02T03:38:23;3.00;;;2.00;;
36669;SDS011;22662;47.412;9.742;2022-08-02T03:40:50;2.03;;;1.85;;
36669;SDS011;22662;47.412;9.742;2022-08-02T03:43:17;3.05;;;1.92;;
36669;SDS011;22662;47.412;9.742;2022-08-02T03:45:46;2.38;;;1.88;;
36669;SDS011;22662;47.412;9.742;2022-08-02T03:48:13;4.05;;;1.70;;
36669;SDS011;22662;47.412;9.742;2022-08-02T03:50:40;3.05;;;1.88;;
36669;SDS011;22662;47.412;9.742;2022-08-02T03:53:07;2.28;;;2.08;;
36669;SDS011;22662;47.412;9.742;2022-08-02T03:55:33;2.38;;;2.00;;
36669;SDS011;22662;47.412;9.742;2022-08-02T03:58:00;3.05;;;2.10;;
36669;SDS011;22662;47.412;9.742;2022-08-02T04:00:26;1.98;;;1.77;;
36669;SDS011;22662;47.412;9.742;2022-08-02T04:02:52;2.53;;;1.70;;
36669;SDS011;22662;47.412;9.742;2022-08-02T04:05:18;2.35;;;1.60;;
36669;SDS011;22662;47.412;9.742;2022-08-02T04:07:44;1.48;;;1.38;;
36669;SDS011;22662;47.412;9.742;2022-08-02T04:10:10;1.30;;;1.20;;
36669;SDS011;22662;47.412;9.742;2022-08-02T04:12:36;1.30;;;1.20;;
36669;SDS011;22662;47.412;9.742;2022-08-02T04:15:03;2.00;;;1.40;;
36669;SDS011;22662;47.412;9.742;2022-08-02T04:17:38;2.10;;;1.55;;
36669;SDS011;22662;47.412;9.742;2022-08-02T04:20:14;1.92;;;1.73;;
36669;SDS011;22662;47.412;9.742;2022-08-02T04:22:48;2.10;;;2.00;;
36669;SDS011;22662;47.412;9.742;2022-08-02T04:27:45;3.13;;;2.13;;
36669;SDS011;22662;47.412;9.742;2022-08-02T04:30:12;4.97;;;2.20;;
36669;SDS011;22662;47.412;9.742;2022-08-02T04:32:40;2.42;;;2.15;;
36669;SDS011;22662;47.412;9.742;2022-08-02T04:35:08;2.70;;;2.10;;
36669;SDS011;22662;47.412;9.742;2022-08-02T04:37:34;2.30;;;2.10;;
36669;SDS011;22662;47.412;9.742;2022-08-02T04:40:02;4.03;;;2.38;;
36669;SDS011;22662;47.412;9.742;2022-08-02T04:42:32;2.58;;;2.20;;
36669;SDS011;22662;47.412;9.742;2022-08-02T04:44:58;2.22;;;1.73;;
36669;SDS011;22662;47.412;9.742;2022-08-02T04:47:24;2.50;;;2.30;;
36669;SDS011;22662;47.412;9.742;2022-08-02T04:49:50;3.35;;;2.10;;
36669;SDS011;22662;47.412;9.742;2022-08-02T04:52:15;3.22;;;2.40;;
36669;SDS011;22662;47.412;9.742;2022-08-02T04:54:41;2.88;;;2.00;;
36669;SDS011;22662;47.412;9.742;2022-08-02T04:57:07;2.92;;;1.83;;
36669;SDS011;22662;47.412;9.742;2022-08-02T04:59:51;2.30;;;2.10;;
36669;SDS011;22662;47.412;9.742;2022-08-02T05:02:17;2.67;;;2.00;;
36669;SDS011;22662;47.412;9.742;2022-08-02T05:04:43;2.67;;;2.10;;
36669;SDS011;22662;47.412;9.742;2022-08-02T05:07:08;2.10;;;1.90;;
36669;SDS011;22662;47.412;9.742;2022-08-02T05:09:35;2.15;;;1.90;;
36669;SDS011;22662;47.412;9.742;2022-08-02T05:12:00;2.60;;;2.10;;
36669;SDS011;22662;47.412;9.742;2022-08-02T05:14:26;2.13;;;1.83;;
36669;SDS011;22662;47.412;9.742;2022-08-02T05:16:52;2.28;;;1.75;;
36669;SDS011;22662;47.412;9.742;2022-08-02T05:19:18;2.70;;;1.40;;
36669;SDS011;22662;47.412;9.742;2022-08-02T05:21:43;2.20;;;1.45;;
36669;SDS011;22662;47.412;9.742;2022-08-02T05:24:09;1.40;;;1.25;;
36669;SDS011;22662;47.412;9.742;2022-08-02T05:26:35;1.77;;;1.25;;
36669;SDS011;22662;47.412;9.742;2022-08-02T05:29:01;1.48;;;1.30;;
36669;SDS011;22662;47.412;9.742;2022-08-02T05:31:28;1.63;;;1.17;;
36669;SDS011;22662;47.412;9.742;2022-08-02T05:33:54;2.70;;;1.40;;
36669;SDS011;22662;47.412;9.742;2022-08-02T05:36:20;1.55;;;1.30;;
36669;SDS011;22662;47.412;9.742;2022-08-02T05:38:46;1.38;;;1.27;;
36669;SDS011;22662;47.412;9.742;2022-08-02T05:41:12;4.47;;;1.45;;
36669;SDS011;22662;47.412;9.742;2022-08-02T05:43:37;1.52;;;1.10;;
36669;SDS011;22662;47.412;9.742;2022-08-02T05:46:03;1.20;;;1.10;;
36669;SDS011;22662;47.412;9.742;2022-08-02T05:48:29;2.50;;;1.00;;
36669;SDS011;22662;47.412;9.742;2022-08-02T05:50:57;1.15;;;1.10;;
36669;SDS011;22662;47.412;9.742;2022-08-02T05:53:50;0.90;;;0.90;;
36669;SDS011;22662;47.412;9.742;2022-08-02T05:58:51;1.98;;;1.20;;
36669;SDS011;22662;47.412;9.742;2022-08-02T06:01:36;1.13;;;1.02;;
36669;SDS011;22662;47.412;9.742;2022-08-02T06:04:05;1.88;;;1.10;;
36669;SDS011;22662;47.412;9.742;2022-08-02T06:06:35;1.65;;;1.20;;
36669;SDS011;22662;47.412;9.742;2022-08-02T06:09:03;2.60;;;1.30;;
36669;SDS011;22662;47.412;9.742;2022-08-02T06:11:37;2.13;;;1.20;;
36669;SDS011;22662;47.412;9.742;2022-08-02T06:14:07;1.67;;;1.30;;
36669;SDS011;22662;47.412;9.742;2022-08-02T06:16:34;1.38;;;1.27;;
36669;SDS011;22662;47.412;9.742;2022-08-02T06:19:01;1.95;;;1.15;;
36669;SDS011;22662;47.412;9.742;2022-08-02T06:21:28;3.03;;;1.00;;
36669;SDS011;22662;47.412;9.742;2022-08-02T06:23:54;1.48;;;1.00;;
36669;SDS011;22662;47.412;9.742;2022-08-02T06:26:22;1.25;;;1.08;;
36669;SDS011;22662;47.412;9.742;2022-08-02T06:28:50;2.88;;;0.80;;
36669;SDS011;22662;47.412;9.742;2022-08-02T06:31:17;5.18;;;1.27;;
36669;SDS011;22662;47.412;9.742;2022-08-02T06:33:43;1.20;;;1.10;;
36669;SDS011;22662;47.412;9.742;2022-08-02T06:36:14;1.73;;;1.00;;
36669;SDS011;22662;47.412;9.742;2022-08-02T06:38:48;2.20;;;1.10;;
36669;SDS011;22662;47.412;9.742;2022-08-02T06:41:17;1.45;;;1.10;;
36669;SDS011;22662;47.412;9.742;2022-08-02T06:43:44;1.30;;;0.85;;
36669;SDS011;22662;47.412;9.742;2022-08-02T06:46:17;1.33;;;1.02;;
36669;SDS011;22662;47.412;9.742;2022-08-02T06:48:43;2.78;;;1.20;;
36669;SDS011;22662;47.412;9.742;2022-08-02T06:51:09;1.23;;;0.90;;
36669;SDS011;22662;47.412;9.742;2022-08-02T06:53:36;3.38;;;1.17;;
36669;SDS011;22662;47.412;9.742;2022-08-02T06:56:02;1.95;;;1.23;;
36669;SDS011;22662;47.412;9.742;2022-08-02T06:58:29;1.58;;;1.08;;
36669;SDS011;22662;47.412;9.742;2022-08-02T07:00:55;2.58;;;1.30;;
36669;SDS011;22662;47.412;9.742;2022-08-02T07:03:20;3.42;;;1.58;;
36669;SDS011;22662;47.412;9.742;2022-08-02T07:05:46;3.65;;;1.10;;
36669;SDS011;22662;47.412;9.742;2022-08-02T07:08:16;2.83;;;1.13;;
36669;SDS011;22662;47.412;9.742;2022-08-02T07:10:42;1.30;;;1.20;;
36669;SDS011;22662;47.412;9.742;2022-08-02T07:13:09;1.45;;;1.10;;
36669;SDS011;22662;47.412;9.742;2022-08-02T07:15:35;1.50;;;1.15;;
36669;SDS011;22662;47.412;9.742;2022-08-02T07:18:05;2.05;;;1.20;;
36669;SDS011;22662;47.412;9.742;2022-08-02T07:20:31;1.83;;;1.25;;
36669;SDS011;22662;47.412;9.742;2022-08-02T07:22:56;1.30;;;1.20;;
36669;SDS011;22662;47.412;9.742;2022-08-02T07:25:22;2.00;;;1.40;;
36669;SDS011;22662;47.412;9.742;2022-08-02T07:27:48;1.63;;;1.35;;
36669;SDS011;22662;47.412;9.742;2022-08-02T07:30:14;1.52;;;1.08;;
36669;SDS011;22662;47.412;9.742;2022-08-02T07:32:40;1.52;;;1.10;;
36669;SDS011;22662;47.412;9.742;2022-08-02T07:35:06;1.75;;;1.40;;
36669;SDS011;22662;47.412;9.742;2022-08-02T07:37:33;1.58;;;1.38;;
36669;SDS011;22662;47.412;9.742;2022-08-02T07:40:00;2.58;;;1.40;;
36669;SDS011;22662;47.412;9.742;2022-08-02T07:42:26;1.45;;;1.35;;
36669;SDS011;22662;47.412;9.742;2022-08-02T07:44:53;2.42;;;1.27;;
36669;SDS011;22662;47.412;9.742;2022-08-02T07:47:19;2.55;;;1.20;;
36669;SDS011;22662;47.412;9.742;2022-08-02T07:49:44;1.95;;;1.45;;
36669;SDS011;22662;47.412;9.742;2022-08-02T07:52:10;1.20;;;1.00;;
36669;SDS011;22662;47.412;9.742;2022-08-02T07:54:36;1.48;;;1.30;;
36669;SDS011;22662;47.412;9.742;2022-08-02T07:57:02;1.75;;;1.45;;
36669;SDS011;22662;47.412;9.742;2022-08-02T07:59:28;3.67;;;1.50;;
36669;SDS011;22662;47.412;9.742;2022-08-02T08:01:54;1.77;;;1.25;;
36669;SDS011;22662;47.412;9.742;2022-08-02T08:04:20;1.58;;;1.20;;
36669;SDS011;22662;47.412;9.742;2022-08-02T08:06:46;1.50;;;1.20;;
36669;SDS011;22662;47.412;9.742;2022-08-02T08:09:17;2.10;;;1.02;;
36669;SDS011;22662;47.412;9.742;2022-08-02T08:11:44;1.20;;;1.10;;
36669;SDS011;22662;47.412;9.742;2022-08-02T08:14:10;2.03;;;1.40;;
36669;SDS011;22662;47.412;9.742;2022-08-02T08:16:36;1.33;;;1.08;;
36669;SDS011;22662;47.412;9.742;2022-08-02T08:19:01;1.80;;;1.25;;
36669;SDS011;22662;47.412;9.742;2022-08-02T08:21:27;1.20;;;1.10;;
36669;SDS011;22662;47.412;9.742;2022-08-02T08:23:54;1.55;;;0.93;;
36669;SDS011;22662;47.412;9.742;2022-08-02T08:26:20;1.25;;;0.90;;
36669;SDS011;22662;47.412;9.742;2022-08-02T08:28:46;1.55;;;1.17;;
36669;SDS011;22662;47.412;9.742;2022-08-02T08:31:12;2.15;;;1.20;;
36669;SDS011;22662;47.412;9.742;2022-08-02T08:33:38;1.45;;;1.08;;
36669;SDS011;22662;47.412;9.742;2022-08-02T08:36:04;1.25;;;1.15;;
36669;SDS011;22662;47.412;9.742;2022-08-02T08:38:30;2.53;;;1.20;;
36669;SDS011;22662;47.412;9.742;2022-08-02T08:40:56;1.83;;;1.30;;
36669;SDS011;22662;47.412;9.742;2022-08-02T08:43:22;1.63;;;1.20;;
36669;SDS011;22662;47.412;9.742;2022-08-02T08:45:48;1.45;;;1.08;;
36669;SDS011;22662;47.412;9.742;2022-08-02T08:48:14;1.65;;;1.20;;
36669;SDS011;22662;47.412;9.742;2022-08-02T08:50:46;1.20;;;1.10;;
36669;SDS011;22662;47.412;9.742;2022-08-02T08:53:17;1.80;;;1.13;;
36669;SDS011;22662;47.412;9.742;2022-08-02T08:55:45;1.50;;;1.20;;
36669;SDS011;22662;47.412;9.742;2022-08-02T08:58:12;1.23;;;0.98;;
36669;SDS011;22662;47.412;9.742;2022-08-02T09:00:38;2.20;;;1.25;;
36669;SDS011;22662;47.412;9.742;2022-08-02T09:03:06;1.23;;;1.13;;
36669;SDS011;22662;47.412;9.742;2022-08-02T09:05:35;1.10;;;1.00;;
36669;SDS011;22662;47.412;9.742;2022-08-02T09:08:02;1.38;;;1.20;;
36669;SDS011;22662;47.412;9.742;2022-08-02T09:10:30;1.40;;;1.00;;
36669;SDS011;22662;47.412;9.742;2022-08-02T09:13:16;1.85;;;1.00;;
36669;SDS011;22662;47.412;9.742;2022-08-02T09:18:16;1.75;;;1.00;;
36669;SDS011;22662;47.412;9.742;2022-08-02T09:20:52;1.85;;;1.02;;
36669;SDS011;22662;47.412;9.742;2022-08-02T09:23:23;0.88;;;0.88;;
36669;SDS011;22662;47.412;9.742;2022-08-02T09:26:04;2.90;;;0.90;;
36669;SDS011;22662;47.412;9.742;2022-08-02T09:28:33;0.90;;;0.90;;
36669;SDS011;22662;47.412;9.742;2022-08-02T09:31:02;1.05;;;0.90;;
36669;SDS011;22662;47.412;9.742;2022-08-02T09:33:30;1.20;;;0.90;;
36669;SDS011;22662;47.412;9.742;2022-08-02T09:38:38;1.10;;;1.00;;
36669;SDS011;22662;47.412;9.742;2022-08-02T09:41:20;2.63;;;1.00;;
36669;SDS011;22662;47.412;9.742;2022-08-02T09:43:47;0.88;;;0.88;;
36669;SDS011;22662;47.412;9.742;2022-08-02T09:46:16;1.45;;;1.13;;
36669;SDS011;22662;47.412;9.742;2022-08-02T09:48:45;1.20;;;0.93;;
36669;SDS011;22662;47.412;9.742;2022-08-02T09:51:16;1.42;;;1.02;;
36669;SDS011;22662;47.412;9.742;2022-08-02T09:53:43;3.78;;;1.10;;
36669;SDS011;22662;47.412;9.742;2022-08-02T09:56:09;1.20;;;1.05;;
36669;SDS011;22662;47.412;9.742;2022-08-02T09:58:37;1.02;;;0.90;;
36669;SDS011;22662;47.412;9.742;2022-08-02T10:01:03;1.50;;;1.20;;
36669;SDS011;22662;47.412;9.742;2022-08-02T10:03:29;1.40;;;1.00;;
36669;SDS011;22662;47.412;9.742;2022-08-02T10:05:55;1.17;;;1.08;;
36669;SDS011;22662;47.412;9.742;2022-08-02T10:08:26;1.00;;;0.90;;
36669;SDS011;22662;47.412;9.742;2022-08-02T10:10:53;2.10;;;1.40;;
36669;SDS011;22662;47.412;9.742;2022-08-02T10:13:29;1.40;;;1.30;;
36669;SDS011;22662;47.412;9.742;2022-08-02T10:15:56;2.90;;;1.40;;
36669;SDS011;22662;47.412;9.742;2022-08-02T10:18:23;1.48;;;1.38;;
36669;SDS011;22662;47.412;9.742;2022-08-02T10:20:49;2.15;;;1.70;;
36669;SDS011;22662;47.412;9.742;2022-08-02T10:23:15;1.67;;;1.52;;
36669;SDS011;22662;47.412;9.742;2022-08-02T10:25:44;1.90;;;1.50;;
36669;SDS011;22662;47.412;9.742;2022-08-02T10:28:13;2.65;;;1.65;;
36669;SDS011;22662;47.412;9.742;2022-08-02T10:30:43;2.35;;;1.45;;
36669;SDS011;22662;47.412;9.742;2022-08-02T10:33:12;2.42;;;2.05;;
36669;SDS011;22662;47.412;9.742;2022-08-02T10:35:43;3.10;;;1.85;;
36669;SDS011;22662;47.412;9.742;2022-08-02T10:38:11;3.67;;;1.88;;
36669;SDS011;22662;47.412;9.742;2022-08-02T10:40:43;3.85;;;1.98;;
36669;SDS011;22662;47.412;9.742;2022-08-02T10:43:11;2.00;;;1.80;;
36669;SDS011;22662;47.412;9.742;2022-08-02T10:49:05;2.08;;;1.67;;
36669;SDS011;22662;47.412;9.742;2022-08-02T10:54:26;2.10;;;1.90;;
36669;SDS011;22662;47.412;9.742;2022-08-02T10:56:55;2.13;;;1.90;;
36669;SDS011;22662;47.412;9.742;2022-08-02T10:59:24;2.00;;;1.80;;
36669;SDS011;22662;47.412;9.742;2022-08-02T11:01:55;1.92;;;1.73;;
36669;SDS011;22662;47.412;9.742;2022-08-02T11:04:29;3.20;;;1.77;;
36669;SDS011;22662;47.412;9.742;2022-08-02T11:09:31;2.25;;;1.90;;
36669;SDS011;22662;47.412;9.742;2022-08-02T11:14:31;1.70;;;1.60;;
36669;SDS011;22662;47.412;9.742;2022-08-02T11:19:30;2.67;;;1.90;;
36669;SDS011;22662;47.412;9.742;2022-08-02T11:22:12;2.08;;;1.50;;
36669;SDS011;22662;47.412;9.742;2022-08-02T11:24:43;2.47;;;1.92;;
36669;SDS011;22662;47.412;9.742;2022-08-02T11:27:18;2.05;;;1.60;;
36669;SDS011;22662;47.412;9.742;2022-08-02T11:29:46;2.17;;;1.30;;
36669;SDS011;22662;47.412;9.742;2022-08-02T11:34:42;1.23;;;1.13;;
36669;SDS011;22662;47.412;9.742;2022-08-02T11:37:11;2.80;;;1.20;;
36669;SDS011;22662;47.412;9.742;2022-08-02T11:39:37;5.63;;;1.70;;
36669;SDS011;22662;47.412;9.742;2022-08-02T11:42:03;2.35;;;1.42;;
36669;SDS011;22662;47.412;9.742;2022-08-02T11:44:29;1.77;;;0.93;;
36669;SDS011;22662;47.412;9.742;2022-08-02T11:49:31;1.48;;;1.15;;
36669;SDS011;22662;47.412;9.742;2022-08-02T11:52:04;1.63;;;1.13;;
36669;SDS011;22662;47.412;9.742;2022-08-02T11:54:35;1.30;;;1.20;;
36669;SDS011;22662;47.412;9.742;2022-08-02T11:57:22;2.35;;;1.30;;
36669;SDS011;22662;47.412;9.742;2022-08-02T11:59:49;1.40;;;1.23;;
36669;SDS011;22662;47.412;9.742;2022-08-02T12:02:22;2.85;;;1.35;;
36669;SDS011;22662;47.412;9.742;2022-08-02T12:04:57;1.67;;;1.25;;
36669;SDS011;22662;47.412;9.742;2022-08-02T12:12:28;2.20;;;1.40;;
36669;SDS011;22662;47.412;9.742;2022-08-02T12:14:54;1.45;;;1.30;;
36669;SDS011;22662;47.412;9.742;2022-08-02T12:17:26;1.20;;;1.10;;
36669;SDS011;22662;47.412;9.742;2022-08-02T12:20:11;2.28;;;1.35;;
36669;SDS011;22662;47.412;9.742;2022-08-02T12:22:38;1.77;;;1.42;;
36669;SDS011;22662;47.412;9.742;2022-08-02T12:25:17;1.85;;;1.42;;
36669;SDS011;22662;47.412;9.742;2022-08-02T12:27:46;2.20;;;1.30;;
36669;SDS011;22662;47.412;9.742;2022-08-02T12:30:13;1.88;;;1.42;;
36669;SDS011;22662;47.412;9.742;2022-08-02T12:32:41;2.08;;;1.60;;
36669;SDS011;22662;47.412;9.742;2022-08-02T12:35:17;1.50;;;1.40;;
36669;SDS011;22662;47.412;9.742;2022-08-02T12:37:47;1.85;;;1.50;;
36669;SDS011;22662;47.412;9.742;2022-08-02T12:42:57;2.03;;;1.75;;
36669;SDS011;22662;47.412;9.742;2022-08-02T12:45:25;2.47;;;1.45;;
36669;SDS011;22662;47.412;9.742;2022-08-02T12:47:53;1.60;;;1.50;;
36669;SDS011;22662;47.412;9.742;2022-08-02T12:50:24;2.47;;;1.50;;
36669;SDS011;22662;47.412;9.742;2022-08-02T12:55:50;3.45;;;1.60;;
36669;SDS011;22662;47.412;9.742;2022-08-02T12:58:19;1.70;;;1.60;;
36669;SDS011;22662;47.412;9.742;2022-08-02T13:00:54;1.67;;;1.58;;
36669;SDS011;22662;47.412;9.742;2022-08-02T13:03:24;3.65;;;1.45;;
36669;SDS011;22662;47.412;9.742;2022-08-02T13:05:50;2.45;;;1.80;;
36669;SDS011;22662;47.412;9.742;2022-08-02T13:08:16;2.45;;;1.73;;
36669;SDS011;22662;47.412;9.742;2022-08-02T13:10:42;2.17;;;1.65;;
36669;SDS011;22662;47.412;9.742;2022-08-02T13:13:08;2.55;;;1.50;;
36669;SDS011;22662;47.412;9.742;2022-08-02T13:15:34;3.17;;;1.60;;
36669;SDS011;22662;47.412;9.742;2022-08-02T13:18:00;1.85;;;1.60;;
36669;SDS011;22662;47.412;9.742;2022-08-02T13:20:26;2.00;;;1.55;;
36669;SDS011;22662;47.412;9.742;2022-08-02T13:22:53;3.40;;;1.88;;
36669;SDS011;22662;47.412;9.742;2022-08-02T13:25:19;1.70;;;1.60;;
36669;SDS011;22662;47.412;9.742;2022-08-02T13:27:46;1.52;;;1.42;;
36669;SDS011;22662;47.412;9.742;2022-08-02T13:30:13;4.63;;;1.42;;
36669;SDS011;22662;47.412;9.742;2022-08-02T13:32:38;1.52;;;1.30;;
36669;SDS011;22662;47.412;9.742;2022-08-02T13:35:04;1.95;;;1.27;;
36669;SDS011;22662;47.412;9.742;2022-08-02T13:37:30;3.15;;;1.63;;
36669;SDS011;22662;47.412;9.742;2022-08-02T13:39:56;1.75;;;1.60;;
36669;SDS011;22662;47.412;9.742;2022-08-02T13:42:22;1.60;;;1.50;;
36669;SDS011;22662;47.412;9.742;2022-08-02T13:44:48;1.52;;;1.42;;
36669;SDS011;22662;47.412;9.742;2022-08-02T13:47:14;1.20;;;1.10;;
36669;SDS011;22662;47.412;9.742;2022-08-02T13:49:39;1.92;;;1.42;;
36669;SDS011;22662;47.412;9.742;2022-08-02T13:52:05;1.45;;;1.35;;
36669;SDS011;22662;47.412;9.742;2022-08-02T13:54:31;1.70;;;1.25;;
36669;SDS011;22662;47.412;9.742;2022-08-02T13:56:58;1.33;;;1.23;;
36669;SDS011;22662;47.412;9.742;2022-08-02T13:59:24;1.35;;;1.15;;
36669;SDS011;22662;47.412;9.742;2022-08-02T14:01:50;1.17;;;1.08;;
36669;SDS011;22662;47.412;9.742;2022-08-02T14:04:17;1.65;;;1.35;;
36669;SDS011;22662;47.412;9.742;2022-08-02T14:06:43;1.60;;;1.20;;
36669;SDS011;22662;47.412;9.742;2022-08-02T14:09:08;1.42;;;1.33;;
36669;SDS011;22662;47.412;9.742;2022-08-02T14:11:34;1.42;;;1.20;;
36669;SDS011;22662;47.412;9.742;2022-08-02T14:14:00;1.33;;;1.20;;
36669;SDS011;22662;47.412;9.742;2022-08-02T14:16:26;2.28;;;1.15;;
36669;SDS011;22662;47.412;9.742;2022-08-02T14:18:51;1.75;;;1.40;;
36669;SDS011;22662;47.412;9.742;2022-08-02T14:21:17;1.60;;;1.30;;
36669;SDS011;22662;47.412;9.742;2022-08-02T14:26:09;2.80;;;1.20;;
36669;SDS011;22662;47.412;9.742;2022-08-02T14:28:35;5.15;;;1.30;;
36669;SDS011;22662;47.412;9.742;2022-08-02T14:31:01;2.78;;;1.58;;
36669;SDS011;22662;47.412;9.742;2022-08-02T14:33:27;2.13;;;1.40;;
36669;SDS011;22662;47.412;9.742;2022-08-02T14:35:53;1.30;;;1.20;;
36669;SDS011;22662;47.412;9.742;2022-08-02T14:38:21;1.65;;;1.55;;
36669;SDS011;22662;47.412;9.742;2022-08-02T14:40:48;1.40;;;1.30;;
36669;SDS011;22662;47.412;9.742;2022-08-02T14:43:13;1.63;;;1.52;;
36669;SDS011;22662;47.412;9.742;2022-08-02T14:45:59;1.60;;;1.50;;
36669;SDS011;22662;47.412;9.742;2022-08-02T14:48:25;1.77;;;1.67;;
36669;SDS011;22662;47.412;9.742;2022-08-02T14:50:52;2.22;;;1.33;;
36669;SDS011;22662;47.412;9.742;2022-08-02T14:53:18;2.13;;;1.38;;
36669;SDS011;22662;47.412;9.742;2022-08-02T14:55:44;2.03;;;1.38;;
36669;SDS011;22662;47.412;9.742;2022-08-02T14:58:10;2.47;;;1.42;;
36669;SDS011;22662;47.412;9.742;2022-08-02T15:00:36;1.90;;;1.50;;
36669;SDS011;22662;47.412;9.742;2022-08-02T15:03:02;1.92;;;1.23;;
36669;SDS011;22662;47.412;9.742;2022-08-02T15:05:28;1.85;;;1.30;;
36669;SDS011;22662;47.412;9.742;2022-08-02T15:07:54;1.85;;;1.30;;
36669;SDS011;22662;47.412;9.742;2022-08-02T15:10:20;1.52;;;1.42;;
36669;SDS011;22662;47.412;9.742;2022-08-02T15:12:46;2.08;;;1.50;;
36669;SDS011;22662;47.412;9.742;2022-08-02T15:15:12;2.00;;;1.40;;
36669;SDS011;22662;47.412;9.742;2022-08-02T15:17:37;2.75;;;1.50;;
36669;SDS011;22662;47.412;9.742;2022-08-02T15:20:04;2.15;;;1.40;;
36669;SDS011;22662;47.412;9.742;2022-08-02T15:22:30;1.65;;;1.55;;
36669;SDS011;22662;47.412;9.742;2022-08-02T15:24:56;1.50;;;1.40;;
36669;SDS011;22662;47.412;9.742;2022-08-02T15:27:22;1.90;;;1.40;;
36669;SDS011;22662;47.412;9.742;2022-08-02T15:29:48;2.38;;;1.48;;
36669;SDS011;22662;47.412;9.742;2022-08-02T15:32:15;1.52;;;1.42;;
36669;SDS011;22662;47.412;9.742;2022-08-02T15:34:45;1.33;;;1.23;;
36669;SDS011;22662;47.412;9.742;2022-08-02T15:37:11;1.70;;;1.60;;
36669;SDS011;22662;47.412;9.742;2022-08-02T15:39:37;2.17;;;1.58;;
36669;SDS011;22662;47.412;9.742;2022-08-02T15:42:03;2.60;;;1.70;;
36669;SDS011;22662;47.412;9.742;2022-08-02T15:44:29;4.70;;;1.77;;
36669;SDS011;22662;47.412;9.742;2022-08-02T15:46:55;2.65;;;1.65;;
36669;SDS011;22662;47.412;9.742;2022-08-02T15:49:21;1.83;;;1.73;;
36669;SDS011;22662;47.412;9.742;2022-08-02T15:51:48;2.20;;;1.63;;
36669;SDS011;22662;47.412;9.742;2022-08-02T15:54:15;2.95;;;1.58;;